Time;durP1;ratioP1;P1;durP2;ratioP2;P2;SDS_P1;SDS_P2;PMS_P1;PMS_P2;Temp;Humidity;BMP_temperature;BMP_pressure;BME280_temperature;BME280_humidity;BME280_pressure;Samples;Min_cycle;Max_cycle;Signal;HPM_P1;HPM_P2
2022/02/14 00:02:25;;;;;;;;;;;;;;;;;;2215848;59;1227;-69
2022/02/14 00:04:58;;;;;;;;;;;;;;;;;;2214700;58;1737;-69
2022/02/14 00:07:31;;;;;;;;;;;;;;;;;;2211403;59;1935;-69
2022/02/14 00:10:05;;;;;;;;;;;;;;;;;;2215878;58;1485;-70
2022/02/14 00:12:41;;;;;;;;;;;;;;;;;;2214426;58;1933;-69
2022/02/14 00:15:15;;;;;;;;;;;;;;;;;;2214408;58;1307;-69
2022/02/14 00:17:50;;;;;;;;;;;;;;;;;;2214234;59;1403;-69
2022/02/14 00:20:24;;;;;;;;;;;;;;;;;;2215661;58;1231;-69
2022/02/14 00:22:57;;;;;;;;;;;;;;;;;;2215606;59;1392;-69
2022/02/14 00:25:30;;;;;;;;;;;;;;;;;;2214889;58;1753;-69
2022/02/14 00:28:03;;;;;;;;;;;;;;;;;;2215375;59;1167;-69
2022/02/14 00:30:37;;;;;;;;;;;;;;;;;;2215059;59;1933;-69
2022/02/14 00:33:13;;;;;;;;;;;;;;;;;;2215936;59;1149;-69
2022/02/14 00:35:47;;;;;;;;;;;;;;;;;;2215436;59;1166;-69
2022/02/14 00:38:20;;;;;;;;;;;;;;;;;;2215273;59;1158;-69
2022/02/14 00:40:53;;;;;;;;;;;;;;;;;;2216231;59;1218;-69
2022/02/14 00:43:26;;;;;;;;;;;;;;;;;;2215792;58;1669;-69
2022/02/14 00:45:59;;;;;;;;;;;;;;;;;;2216511;59;1179;-70
2022/02/14 00:48:35;;;;;;;;;;;;;;;;;;2215669;58;1475;-69
2022/02/14 00:51:09;;;;;;;;;;;;;;;;;;2214780;59;1975;-69
2022/02/14 00:53:42;;;;;;;;;;;;;;;;;;2215900;53;1582;-69
2022/02/14 00:56:15;;;;;;;;;;;;;;;;;;2211604;59;1355;-69
2022/02/14 00:58:48;;;;;;;;;;;;;;;;;;2211775;59;1679;-69
2022/02/14 01:01:21;;;;;;;;;;;;;;;;;;2214721;58;1441;-69
2022/02/14 01:03:57;;;;;;;;;;;;;;;;;;2211666;59;1744;-69
2022/02/14 01:06:30;;;;;;;;;;;;;;;;;;2214051;59;1198;-69
2022/02/14 01:09:04;;;;;;;;;;;;;;;;;;2213560;59;1221;-69
2022/02/14 01:11:38;;;;;;;;;;;;;;;;;;2211962;59;1935;-69
2022/02/14 01:14:11;;;;;;;;;;;;;;;;;;2212692;59;1269;-69
2022/02/14 01:16:44;;;;;;;;;;;;;;;;;;2214614;59;1202;-69
2022/02/14 01:19:20;;;;;;;;;;;;;;;;;;2212785;59;1454;-70
2022/02/14 01:21:54;;;;;;;;;;;;;;;;;;2212897;59;1326;-69
2022/02/14 01:24:27;;;;;;;;;;;;;;;;;;2212048;59;1776;-69
2022/02/14 01:27:00;;;;;;;;;;;;;;;;;;2211595;59;1203;-69
2022/02/14 01:29:33;;;;;;;;;;;;;;;;;;2213269;59;1320;-69
2022/02/14 01:32:07;;;;;;;;;;;;;;;;;;2213603;59;1977;-70
2022/02/14 01:34:42;;;;;;;;;;;;;;;;;;2213888;59;1332;-69
2022/02/14 01:37:16;;;;;;;;;;;;;;;;;;2212903;59;1482;-69
2022/02/14 01:39:49;;;;;;;;;;;;;;;;;;2212659;59;1239;-69
2022/02/14 01:42:22;;;;;;;;;;;;;;;;;;2213138;59;1357;-69
2022/02/14 01:44:55;;;;;;;;;;;;;;;;;;2211405;59;1538;-69
2022/02/14 01:47:29;;;;;;;;;;;;;;;;;;2212864;59;1498;-69
2022/02/14 01:50:06;;;;;;;;;;;;;;;;;;2213474;59;1476;-69
2022/02/14 01:52:39;;;;;;;;;;;;;;;;;;2211498;59;1940;-69
2022/02/14 01:55:13;;;;;;;;;;;;;;;;;;2212652;59;1278;-69
2022/02/14 01:57:46;;;;;;;;;;;;;;;;;;2212991;59;1178;-69
2022/02/14 02:00:20;;;;;;;;;;;;;;;;;;2212308;59;1112;-69
2022/02/14 02:02:54;;;;;;;;;;;;;;;;;;2211041;59;1153;-69
2022/02/14 02:05:30;;;;;;;;;;;;;;;;;;2212046;59;1527;-69
2022/02/14 02:08:03;;;;;;;;;;;;;;;;;;2211804;59;1584;-68
2022/02/14 02:10:36;;;;;;;;;;;;;;;;;;2211119;59;1291;-69
2022/02/14 02:13:06;;;;;;;;;;;;;;;;;;2211400;59;1939;-69
2022/02/14 02:15:40;;;;;;;;;;;;;;;;;;2211738;59;1350;-69
2022/02/14 02:18:13;;;;;;;;;;;;;;;;;;2212608;59;1375;-69
2022/02/14 02:20:49;;;;;;;;;;;;;;;;;;2213015;59;1563;-69
2022/02/14 02:23:22;;;;;;;;;;;;;;;;;;2213859;59;1684;-69
2022/02/14 02:25:58;;;;;;;;;;;;;;;;;;2213232;59;1496;-69
2022/02/14 02:28:31;;;;;;;;;;;;;;;;;;2214436;59;1278;-69
2022/02/14 02:31:05;;;;;;;;;;;;;;;;;;2213087;59;1435;-69
2022/02/14 02:33:38;;;;;;;;;;;;;;;;;;2213989;59;2420;-70
2022/02/14 02:36:11;;;;;;;;;;;;;;;;;;2213860;59;1117;-69
2022/02/14 02:38:44;;;;;;;;;;;;;;;;;;2213527;59;1230;-69
2022/02/14 02:41:20;;;;;;;;;;;;;;;;;;2213091;59;1203;-69
2022/02/14 02:43:53;;;;;;;;;;;;;;;;;;2212457;59;1421;-69
2022/02/14 02:46:26;;;;;;;;;;;;;;;;;;2213752;59;1314;-68
2022/02/14 02:49:10;;;;;;;;;;;;;;;;;;2213754;59;1531;-69
2022/02/14 02:51:44;;;;;;;;;;;;;;;;;;2212586;59;1959;-69
2022/02/14 02:54:18;;;;;;;;;;;;;;;;;;2213189;59;1246;-69
2022/02/14 02:56:55;;;;;;;;;;;;;;;;;;2212702;59;1541;-68
2022/02/14 02:59:29;;;;;;;;;;;;;;;;;;2212518;59;1387;-69
2022/02/14 03:02:02;;;;;;;;;;;;;;;;;;2212980;59;1188;-69
2022/02/14 03:04:35;;;;;;;;;;;;;;;;;;2212927;59;1615;-69
2022/02/14 03:07:09;;;;;;;;;;;;;;;;;;2212597;59;1162;-68
2022/02/14 03:09:42;;;;;;;;;;;;;;;;;;2213245;59;1260;-69
2022/02/14 03:12:18;;;;;;;;;;;;;;;;;;2211817;59;2002;-69
2022/02/14 03:14:51;;;;;;;;;;;;;;;;;;2213066;59;1228;-69
2022/02/14 03:17:24;;;;;;;;;;;;;;;;;;2213272;59;1442;-69
2022/02/14 03:19:57;;;;;;;;;;;;;;;;;;2212934;59;1407;-68
2022/02/14 03:22:30;;;;;;;;;;;;;;;;;;2213290;59;1325;-69
2022/02/14 03:25:03;;;;;;;;;;;;;;;;;;2211839;59;1722;-68
2022/02/14 03:27:39;;;;;;;;;;;;;;;;;;2212819;59;1246;-69
2022/02/14 03:30:13;;;;;;;;;;;;;;;;;;2212802;59;1283;-69
2022/02/14 03:32:46;;;;;;;;;;;;;;;;;;2213057;59;2000;-69
2022/02/14 03:35:20;;;;;;;;;;;;;;;;;;2212268;59;1284;-68
2022/02/14 03:37:53;;;;;;;;;;;;;;;;;;2213098;59;1318;-69
2022/02/14 03:40:26;;;;;;;;;;;;;;;;;;2213164;59;1260;-68
2022/02/14 03:43:03;;;;;;;;;;;;;;;;;;2212489;59;1514;-69
2022/02/14 03:45:36;;;;;;;;;;;;;;;;;;2212208;59;1558;-69
2022/02/14 03:48:10;;;;;;;;;;;;;;;;;;2212770;59;1522;-69
2022/02/14 03:50:43;;;;;;;;;;;;;;;;;;2213528;59;1252;-68
2022/02/14 03:53:17;;;;;;;;;;;;;;;;;;2212672;59;1996;-68
2022/02/14 03:55:50;;;;;;;;;;;;;;;;;;2212583;59;1140;-69
2022/02/14 03:58:26;;;;;;;;;;;;;;;;;;2212758;59;1924;-68
2022/02/14 04:00:59;;;;;;;;;;;;;;;;;;2211674;59;1214;-68
2022/02/14 04:03:32;;;;;;;;;;;;;;;;;;2212175;59;1718;-68
2022/02/14 04:06:05;;;;;;;;;;;;;;;;;;2212291;59;1090;-68
2022/02/14 04:08:39;;;;;;;;;;;;;;;;;;2212369;59;1103;-68
2022/02/14 04:11:12;;;;;;;;;;;;;;;;;;2212865;59;1199;-68
2022/02/14 04:13:48;;;;;;;;;;;;;;;;;;2211658;59;1929;-68
2022/02/14 04:16:21;;;;;;;;;;;;;;;;;;2211423;59;1304;-68
2022/02/14 04:18:54;;;;;;;;;;;;;;;;;;2212214;59;1253;-68
2022/02/14 04:21:27;;;;;;;;;;;;;;;;;;2213416;59;1332;-68
2022/02/14 04:24:00;;;;;;;;;;;;;;;;;;2213627;53;3720;-72
2022/02/14 04:26:33;;;;;;;;;;;;;;;;;;2208648;59;1092;-72
2022/02/14 04:29:09;;;;;;;;;;;;;;;;;;2209460;59;1106;-72
2022/02/14 04:31:42;;;;;;;;;;;;;;;;;;2210211;59;1229;-72
2022/02/14 04:34:18;;;;;;;;;;;;;;;;;;2209776;59;1929;-72
2022/02/14 04:36:54;;;;;;;;;;;;;;;;;;2210226;59;1268;-72
2022/02/14 04:39:27;;;;;;;;;;;;;;;;;;2210249;59;1220;-72
2022/02/14 04:42:00;;;;;;;;;;;;;;;;;;2210223;59;1964;-72
2022/02/14 04:44:36;;;;;;;;;;;;;;;;;;2210095;59;1480;-71
2022/02/14 04:47:09;;;;;;;;;;;;;;;;;;2210298;59;1353;-71
2022/02/14 04:49:43;;;;;;;;;;;;;;;;;;2210367;59;1607;-72
2022/02/14 04:52:17;;;;;;;;;;;;;;;;;;2210540;59;1933;-72
2022/02/14 04:54:50;;;;;;;;;;;;;;;;;;2210263;59;1163;-72
2022/02/14 04:57:23;;;;;;;;;;;;;;;;;;2210567;59;1344;-72
2022/02/14 04:59:59;;;;;;;;;;;;;;;;;;2210518;59;1222;-72
2022/02/14 05:02:32;;;;;;;;;;;;;;;;;;2210555;59;1144;-72
2022/02/14 05:05:05;;;;;;;;;;;;;;;;;;2209625;59;1536;-72
2022/02/14 05:07:39;;;;;;;;;;;;;;;;;;2210055;59;1114;-72
2022/02/14 05:10:12;;;;;;;;;;;;;;;;;;2210184;59;1200;-72
2022/02/14 05:12:45;;;;;;;;;;;;;;;;;;2210082;59;1937;-72
2022/02/14 05:15:21;;;;;;;;;;;;;;;;;;2210108;59;1285;-72
2022/02/14 05:17:54;;;;;;;;;;;;;;;;;;2210417;59;1452;-72
2022/02/14 05:20:27;;;;;;;;;;;;;;;;;;2210438;59;1419;-72
2022/02/14 05:23:00;;;;;;;;;;;;;;;;;;2210062;59;1312;-72
2022/02/14 05:25:34;;;;;;;;;;;;;;;;;;2209796;59;2021;-72
2022/02/14 05:28:08;;;;;;;;;;;;;;;;;;2210246;59;1205;-72
2022/02/14 05:30:44;;;;;;;;;;;;;;;;;;2210376;59;1264;-72
2022/02/14 05:33:17;;;;;;;;;;;;;;;;;;2209852;59;1937;-72
2022/02/14 05:35:50;;;;;;;;;;;;;;;;;;2210000;59;1237;-72
2022/02/14 05:38:23;;;;;;;;;;;;;;;;;;2210234;59;2483;-72
2022/02/14 05:40:56;;;;;;;;;;;;;;;;;;2210149;59;1219;-72
2022/02/14 05:43:29;;;;;;;;;;;;;;;;;;2206433;59;1284;-72
2022/02/14 05:46:13;;;;;;;;;;;;;;;;;;2209951;59;1973;-72
2022/02/14 05:48:47;;;;;;;;;;;;;;;;;;2209858;59;1539;-72
2022/02/14 05:51:20;;;;;;;;;;;;;;;;;;2210019;59;1151;-72
2022/02/14 05:53:53;;;;;;;;;;;;;;;;;;2210037;59;1982;-72
2022/02/14 05:56:26;;;;;;;;;;;;;;;;;;2210486;59;1275;-72
2022/02/14 05:58:59;;;;;;;;;;;;;;;;;;2210098;59;1290;-72
2022/02/14 06:01:35;;;;;;;;;;;;;;;;;;2209986;59;1234;-72
2022/02/14 06:04:08;;;;;;;;;;;;;;;;;;2210012;59;1656;-72
2022/02/14 06:06:41;;;;;;;;;;;;;;;;;;2209925;59;1166;-72
2022/02/14 06:09:14;;;;;;;;;;;;;;;;;;2210307;59;1288;-72
2022/02/14 06:11:47;;;;;;;;;;;;;;;;;;2209893;59;1480;-72
2022/02/14 06:14:20;;;;;;;;;;;;;;;;;;2209175;59;1983;-72
2022/02/14 06:16:56;;;;;;;;;;;;;;;;;;2209995;59;1245;-72
2022/02/14 06:19:29;;;;;;;;;;;;;;;;;;2210012;59;1179;-72
2022/02/14 06:22:03;;;;;;;;;;;;;;;;;;2209954;59;1375;-72
2022/02/14 06:24:36;;;;;;;;;;;;;;;;;;2209485;59;1787;-72
2022/02/14 06:27:09;;;;;;;;;;;;;;;;;;2209742;59;1169;-72
2022/02/14 06:29:42;;;;;;;;;;;;;;;;;;2208433;59;1741;-72
2022/02/14 06:32:18;;;;;;;;;;;;;;;;;;2206482;59;1187;-72
2022/02/14 06:34:51;;;;;;;;;;;;;;;;;;2208918;59;1989;-72
2022/02/14 06:37:24;;;;;;;;;;;;;;;;;;2209203;59;1925;-72
2022/02/14 06:39:57;;;;;;;;;;;;;;;;;;2209743;59;1802;-72
2022/02/14 06:42:30;;;;;;;;;;;;;;;;;;2210013;59;1200;-72
2022/02/14 06:45:04;;;;;;;;;;;;;;;;;;2208806;59;1806;-72
2022/02/14 06:47:39;;;;;;;;;;;;;;;;;;2210199;59;1302;-72
2022/02/14 06:50:13;;;;;;;;;;;;;;;;;;2210196;59;1504;-72
2022/02/14 06:52:46;;;;;;;;;;;;;;;;;;2209985;59;1934;-72
2022/02/14 06:55:20;;;;;;;;;;;;;;;;;;2210355;59;1282;-72
2022/02/14 06:57:53;;;;;;;;;;;;;;;;;;2209774;59;1394;-72
2022/02/14 07:00:26;;;;;;;;;;;;;;;;;;2209849;59;1442;-72
2022/02/14 07:03:02;;;;;;;;;;;;;;;;;;2205661;59;1779;-72
2022/02/14 07:05:35;;;;;;;;;;;;;;;;;;2208843;59;1594;-72
2022/02/14 07:08:08;;;;;;;;;;;;;;;;;;2211018;59;1169;-72
2022/02/14 07:10:41;;;;;;;;;;;;;;;;;;2210484;59;1308;-72
2022/02/14 07:13:14;;;;;;;;;;;;;;;;;;2209874;59;1992;-72
2022/02/14 07:15:48;;;;;;;;;;;;;;;;;;2210565;59;2305;-72
2022/02/14 07:18:25;;;;;;;;;;;;;;;;;;2207663;59;1708;-72
2022/02/14 07:20:58;;;;;;;;;;;;;;;;;;2210845;59;1284;-72
2022/02/14 07:23:31;;;;;;;;;;;;;;;;;;2209607;59;1754;-72
2022/02/14 07:26:04;;;;;;;;;;;;;;;;;;2208214;59;1903;-72
2022/02/14 07:28:37;;;;;;;;;;;;;;;;;;2210278;59;1215;-72
2022/02/14 07:31:10;;;;;;;;;;;;;;;;;;2210591;59;1307;-72
2022/02/14 07:33:46;;;;;;;;;;;;;;;;;;2210247;59;1949;-72
2022/02/14 07:36:21;;;;;;;;;;;;;;;;;;2209908;59;1888;-72
2022/02/14 07:38:54;;;;;;;;;;;;;;;;;;2210310;59;1064;-72
2022/02/14 07:41:27;;;;;;;;;;;;;;;;;;2210417;59;2389;-72
2022/02/14 07:44:00;;;;;;;;;;;;;;;;;;2209424;59;1715;-72
2022/02/14 07:46:33;;;;;;;;;;;;;;;;;;2210192;59;1483;-72
2022/02/14 07:49:09;;;;;;;;;;;;;;;;;;2206192;59;1834;-72
2022/02/14 07:51:42;;;;;;;;;;;;;;;;;;2209925;59;1324;-72
2022/02/14 07:54:16;;;;;;;;;;;;;;;;;;2210663;59;2015;-72
2022/02/14 07:56:49;;;;;;;;;;;;;;;;;;2210578;59;1117;-72
2022/02/14 07:59:22;;;;;;;;;;;;;;;;;;2211042;59;1247;-72
2022/02/14 08:01:55;;;;;;;;;;;;;;;;;;2210794;59;1140;-72
2022/02/14 08:04:31;;;;;;;;;;;;;;;;;;2210168;59;1860;-72
2022/02/14 08:07:06;;;;;;;;;;;;;;;;;;2210114;59;1172;-72
2022/02/14 08:09:39;;;;;;;;;;;;;;;;;;2210624;59;1212;-72
2022/02/14 08:12:12;;;;;;;;;;;;;;;;;;2210165;59;1233;-72
2022/02/14 08:14:46;;;;;;;;;;;;;;;;;;2210055;59;1945;-72
2022/02/14 08:17:20;;;;;;;;;;;;;;;;;;2210390;59;1412;-72
2022/02/14 08:19:56;;;;;;;;;;;;;;;;;;2210508;59;1233;-72
2022/02/14 08:22:29;;;;;;;;;;;;;;;;;;2209767;59;1622;-72
2022/02/14 08:25:02;;;;;;;;;;;;;;;;;;2209786;59;1532;-72
2022/02/14 08:27:35;;;;;;;;;;;;;;;;;;2206042;59;1148;-72
2022/02/14 08:30:09;;;;;;;;;;;;;;;;;;2209857;59;1188;-72
2022/02/14 08:32:43;;;;;;;;;;;;;;;;;;2210175;59;1281;-72
2022/02/14 08:35:19;;;;;;;;;;;;;;;;;;2209718;59;1949;-73
2022/02/14 08:37:53;;;;;;;;;;;;;;;;;;2210348;59;1146;-72
2022/02/14 08:40:26;;;;;;;;;;;;;;;;;;2210252;59;1320;-72
2022/02/14 08:43:00;;;;;;;;;;;;;;;;;;2210164;59;1035;-72
2022/02/14 08:45:34;;;;;;;;;;;;;;;;;;2209616;59;1668;-72
2022/02/14 08:48:07;;;;;;;;;;;;;;;;;;2208003;59;1957;-72
2022/02/14 08:50:43;;;;;;;;;;;;;;;;;;2209176;59;1896;-72
2022/02/14 08:53:17;;;;;;;;;;;;;;;;;;2209244;59;1203;-72
2022/02/14 08:55:50;;;;;;;;;;;;;;;;;;2210248;59;1561;-72
2022/02/14 08:58:25;;;;;;;;;;;;;;;;;;2210905;59;1247;-72
2022/02/14 09:00:58;;;;;;;;;;;;;;;;;;2209717;59;1213;-72
2022/02/14 09:03:32;;;;;;;;;;;;;;;;;;2209604;59;1305;-72
2022/02/14 09:06:09;;;;;;;;;;;;;;;;;;2206201;59;1563;-70
2022/02/14 09:08:42;;;;;;;;;;;;;;;;;;2210095;59;1275;-70
2022/02/14 09:11:15;;;;;;;;;;;;;;;;;;2210174;59;1136;-71
2022/02/14 09:13:48;;;;;;;;;;;;;;;;;;2206919;59;1986;-71
2022/02/14 09:16:22;;;;;;;;;;;;;;;;;;2210107;59;1794;-71
2022/02/14 09:18:55;;;;;;;;;;;;;;;;;;2209457;59;2038;-71
2022/02/14 09:21:31;;;;;;;;;;;;;;;;;;2205583;59;1909;-71
2022/02/14 09:24:04;;;;;;;;;;;;;;;;;;2205225;59;1725;-71
2022/02/14 09:26:37;;;;;;;;;;;;;;;;;;2208496;59;1905;-71
2022/02/14 09:29:10;;;;;;;;;;;;;;;;;;2210257;59;1302;-70
2022/02/14 09:31:44;;;;;;;;;;;;;;;;;;2207209;59;2373;-70
2022/02/14 09:34:19;;;;;;;;;;;;;;;;;;2209303;59;1936;-70
2022/02/14 09:36:56;;;;;;;;;;;;;;;;;;2208905;59;1732;-70
2022/02/14 09:39:30;;;;;;;;;;;;;;;;;;2209838;59;1321;-71
2022/02/14 09:42:04;;;;;;;;;;;;;;;;;;2207003;59;1593;-71
2022/02/14 09:44:37;;;;;;;;;;;;;;;;;;2206946;59;1739;-71
2022/02/14 09:47:10;;;;;;;;;;;;;;;;;;2207416;59;1592;-70
2022/02/14 09:49:44;;;;;;;;;;;;;;;;;;2210102;59;1556;-70
2022/02/14 09:52:20;;;;;;;;;;;;;;;;;;2209119;59;2948;-70
2022/02/14 09:54:53;;;;;;;;;;;;;;;;;;2209292;59;1952;-70
2022/02/14 09:57:26;;;;;;;;;;;;;;;;;;2210871;59;1239;-70
2022/02/14 09:59:59;;;;;;;;;;;;;;;;;;2209931;59;1221;-70
2022/02/14 10:02:32;;;;;;;;;;;;;;;;;;2209903;59;1606;-71
2022/02/14 10:05:07;;;;;;;;;;;;;;;;;;2210281;59;1577;-71
2022/02/14 10:07:47;;;;;;;;;;;;;;;;;;2210102;59;1116;-71
2022/02/14 10:10:21;;;;;;;;;;;;;;;;;;2210377;59;1120;-71
2022/02/14 10:12:55;;;;;;;;;;;;;;;;;;2210232;59;1172;-71
2022/02/14 10:15:29;;;;;;;;;;;;;;;;;;2209847;59;1991;-71
2022/02/14 10:18:03;;;;;;;;;;;;;;;;;;2209960;59;1260;-71
2022/02/14 10:20:36;;;;;;;;;;;;;;;;;;2209757;59;1443;-71
2022/02/14 10:23:12;;;;;;;;;;;;;;;;;;2211935;59;2741;-71
2022/02/14 10:25:46;;;;;;;;;;;;;;;;;;2208034;53;3719;-70
2022/02/14 10:28:25;;;;;;;;;;;;;;;;;;2211239;58;1628;-70
2022/02/14 10:30:59;;;;;;;;;;;;;;;;;;2212675;59;1221;-71
2022/02/14 10:33:52;;;;;;;;;;;;;;;;;;2212535;59;1337;-70
2022/02/14 10:36:27;;;;;;;;;;;;;;;;;;2208605;59;1530;-71
2022/02/14 10:39:09;;;;;;;;;;;;;;;;;;2209393;59;1114;-70
2022/02/14 10:41:42;;;;;;;;;;;;;;;;;;2209204;59;1167;-70
2022/02/14 10:45:07;;;;;;;;;;;;;;;;;;2206189;59;1428;-70
2022/02/14 10:47:11;;;;;;;;;;;;;;;;;;2207534;59;2157;-70
2022/02/14 10:49:45;;;;;;;;;;;;;;;;;;2209053;59;1659;-71
2022/02/14 10:52:18;;;;;;;;;;;;;;;;;;2207805;59;2386;-71
2022/02/14 10:54:55;;;;;;;;;;;;;;;;;;2207892;59;2495;-71
2022/02/14 10:57:30;;;;;;;;;;;;;;;;;;2208119;59;1194;-71
2022/02/14 11:00:05;;;;;;;;;;;;;;;;;;2209596;59;1218;-70
2022/02/14 11:02:39;;;;;;;;;;;;;;;;;;2209717;59;1180;-70
2022/02/14 11:05:12;;;;;;;;;;;;;;;;;;2209087;59;1671;-70
2022/02/14 11:07:45;;;;;;;;;;;;;;;;;;2207922;59;1532;-70
2022/02/14 11:10:22;;;;;;;;;;;;;;;;;;2203157;59;1141;-70
2022/02/14 11:12:57;;;;;;;;;;;;;;;;;;2207528;59;1255;-70
2022/02/14 11:15:31;;;;;;;;;;;;;;;;;;2208029;59;2000;-71
2022/02/14 11:18:06;;;;;;;;;;;;;;;;;;2210106;59;1590;-71
2022/02/14 11:20:39;;;;;;;;;;;;;;;;;;2207348;59;1155;-70
2022/02/14 11:23:13;;;;;;;;;;;;;;;;;;2209335;59;1772;-70
2022/02/14 11:25:56;;;;;;;;;;;;;;;;;;2208250;59;1902;-71
2022/02/14 11:28:33;;;;;;;;;;;;;;;;;;2208568;59;1714;-70
2022/02/14 11:31:10;;;;;;;;;;;;;;;;;;2209381;59;1800;-71
2022/02/14 11:33:44;;;;;;;;;;;;;;;;;;2208877;59;1854;-71
2022/02/14 11:36:18;;;;;;;;;;;;;;;;;;2208751;59;1939;-71
2022/02/14 11:38:53;;;;;;;;;;;;;;;;;;2208886;59;1133;-71
2022/02/14 11:41:30;;;;;;;;;;;;;;;;;;2209442;59;1268;-70
2022/02/14 11:44:20;;;;;;;;;;;;;;;;;;2208776;59;1596;-71
2022/02/14 11:47:08;;;;;;;;;;;;;;;;;;2209768;59;1448;-70
2022/02/14 11:49:42;;;;;;;;;;;;;;;;;;2206501;59;1648;-71
2022/02/14 11:52:32;;;;;;;;;;;;;;;;;;2209434;59;2547;-71
2022/02/14 11:55:08;;;;;;;;;;;;;;;;;;2207566;59;2174;-70
2022/02/14 11:57:48;;;;;;;;;;;;;;;;;;2208970;59;1219;-70
2022/02/14 12:00:28;;;;;;;;;;;;;;;;;;2208606;59;1285;-71
2022/02/14 12:03:02;;;;;;;;;;;;;;;;;;2208945;59;1210;-70
2022/02/14 12:05:46;;;;;;;;;;;;;;;;;;2209223;59;1492;-70
2022/02/14 12:08:20;;;;;;;;;;;;;;;;;;2209346;59;1288;-70
2022/02/14 12:10:55;;;;;;;;;;;;;;;;;;2209238;59;1513;-71
2022/02/14 12:13:35;;;;;;;;;;;;;;;;;;2208815;59;1279;-70
2022/02/14 12:21:53;;;;;;;;;;;;;;;;;;2209034;59;1633;-71
2022/02/14 12:24:27;;;;;;;;;;;;;;;;;;2208252;59;1934;-70
2022/02/14 12:27:02;;;;;;;;;;;;;;;;;;2208734;59;1199;-70
2022/02/14 12:29:39;;;;;;;;;;;;;;;;;;2208612;59;1319;-70
2022/02/14 12:32:17;;;;;;;;;;;;;;;;;;2209279;59;1552;-70
2022/02/14 12:34:52;;;;;;;;;;;;;;;;;;2204589;59;2003;-71
2022/02/14 12:37:26;;;;;;;;;;;;;;;;;;2207797;59;1410;-71
2022/02/14 12:40:00;;;;;;;;;;;;;;;;;;2207921;59;1138;-71
2022/02/14 12:42:33;;;;;;;;;;;;;;;;;;2208432;59;1336;-71
2022/02/14 12:45:14;;;;;;;;;;;;;;;;;;2207358;59;2745;-70
2022/02/14 12:47:48;;;;;;;;;;;;;;;;;;2209305;59;1456;-70
2022/02/14 12:50:21;;;;;;;;;;;;;;;;;;2209169;59;1771;-71
2022/02/14 12:52:55;;;;;;;;;;;;;;;;;;2208555;59;1767;-71
2022/02/14 12:55:29;;;;;;;;;;;;;;;;;;2209808;59;1931;-71
2022/02/14 12:58:03;;;;;;;;;;;;;;;;;;2209466;59;1218;-71
2022/02/14 13:00:42;;;;;;;;;;;;;;;;;;2208630;59;1211;-70
2022/02/14 13:03:16;;;;;;;;;;;;;;;;;;2209251;59;1229;-71
2022/02/14 13:05:51;;;;;;;;;;;;;;;;;;2209136;59;1847;-70
2022/02/14 13:08:25;;;;;;;;;;;;;;;;;;2209392;59;1121;-71
2022/02/14 13:11:00;;;;;;;;;;;;;;;;;;2205383;59;1737;-71
2022/02/14 13:13:44;;;;;;;;;;;;;;;;;;2207874;59;1808;-70
2022/02/14 13:16:28;;;;;;;;;;;;;;;;;;2209150;59;1927;-70
2022/02/14 13:19:13;;;;;;;;;;;;;;;;;;2207635;59;1155;-70
2022/02/14 13:21:46;;;;;;;;;;;;;;;;;;2209111;59;1386;-71
2022/02/14 13:24:20;;;;;;;;;;;;;;;;;;2209636;59;1517;-71
2022/02/14 13:27:07;;;;;;;;;;;;;;;;;;2208582;59;1144;-71
2022/02/14 13:29:42;;;;;;;;;;;;;;;;;;2210304;59;1225;-71
2022/02/14 13:32:19;;;;;;;;;;;;;;;;;;2209448;59;1282;-71
2022/02/14 13:34:53;;;;;;;;;;;;;;;;;;2205670;59;1665;-71
2022/02/14 13:37:26;;;;;;;;;;;;;;;;;;2206265;59;1191;-70
2022/02/14 13:39:59;;;;;;;;;;;;;;;;;;2208550;59;1788;-70
2022/02/14 13:42:32;;;;;;;;;;;;;;;;;;2209825;59;1255;-71
2022/02/14 13:45:06;;;;;;;;;;;;;;;;;;2208283;59;2552;-71
2022/02/14 13:47:42;;;;;;;;;;;;;;;;;;2208578;59;2581;-70
2022/02/14 13:50:29;;;;;;;;;;;;;;;;;;2208541;59;2022;-71
2022/02/14 13:53:02;;;;;;;;;;;;;;;;;;2209497;59;1083;-71
2022/02/14 13:55:36;;;;;;;;;;;;;;;;;;2206519;59;1926;-71
2022/02/14 13:58:09;;;;;;;;;;;;;;;;;;2208647;59;1143;-71
2022/02/14 14:00:43;;;;;;;;;;;;;;;;;;2209616;59;1394;-71
2022/02/14 14:03:18;;;;;;;;;;;;;;;;;;2209126;59;1965;-70
2022/02/14 14:05:52;;;;;;;;;;;;;;;;;;2208885;59;1672;-71
2022/02/14 14:08:35;;;;;;;;;;;;;;;;;;2209179;59;1145;-71
2022/02/14 14:11:08;;;;;;;;;;;;;;;;;;2209456;59;1206;-70
2022/02/14 14:13:43;;;;;;;;;;;;;;;;;;2208616;59;1148;-69
2022/02/14 14:16:16;;;;;;;;;;;;;;;;;;2208019;59;1941;-70
2022/02/14 14:18:52;;;;;;;;;;;;;;;;;;2209421;59;1367;-70
2022/02/14 14:21:26;;;;;;;;;;;;;;;;;;2209996;59;1608;-70
2022/02/14 14:23:59;;;;;;;;;;;;;;;;;;2208299;59;1790;-70
2022/02/14 14:26:32;;;;;;;;;;;;;;;;;;2210591;59;1476;-70
2022/02/14 14:29:05;;;;;;;;;;;;;;;;;;2210367;59;1379;-70
2022/02/14 14:31:39;;;;;;;;;;;;;;;;;;2209082;59;1735;-70
2022/02/14 14:34:15;;;;;;;;;;;;;;;;;;2208764;59;1872;-70
2022/02/14 14:36:48;;;;;;;;;;;;;;;;;;2209937;59;1929;-70
2022/02/14 14:39:21;;;;;;;;;;;;;;;;;;2209031;59;1275;-70
2022/02/14 14:41:54;;;;;;;;;;;;;;;;;;2209388;59;1147;-70
2022/02/14 14:44:28;;;;;;;;;;;;;;;;;;2209218;59;1635;-70
2022/02/14 14:47:02;;;;;;;;;;;;;;;;;;2208520;59;2605;-70
2022/02/14 14:49:38;;;;;;;;;;;;;;;;;;2209162;59;1486;-70
2022/02/14 14:52:11;;;;;;;;;;;;;;;;;;2210203;67;1187;-70
2022/02/14 14:54:45;;;;;;;;;;;;;;;;;;2209510;59;1305;-70
2022/02/14 14:57:19;;;;;;;;;;;;;;;;;;2209758;67;1946;-71
2022/02/14 14:59:52;;;;;;;;;;;;;;;;;;2209962;59;1094;-71
2022/02/14 15:02:25;;;;;;;;;;;;;;;;;;2209994;67;1094;-70
2022/02/14 15:05:01;;;;;;;;;;;;;;;;;;2210029;59;1930;-71
2022/02/14 15:07:34;;;;;;;;;;;;;;;;;;2210219;67;1143;-70
2022/02/14 15:10:08;;;;;;;;;;;;;;;;;;2209254;67;1172;-70
2022/02/14 15:12:41;;;;;;;;;;;;;;;;;;2209053;67;1101;-71
2022/02/14 15:15:15;;;;;;;;;;;;;;;;;;2209471;59;1251;-70
2022/02/14 15:17:48;;;;;;;;;;;;;;;;;;2208777;59;1933;-70
2022/02/14 15:20:24;;;;;;;;;;;;;;;;;;2210347;59;1554;-70
2022/02/14 15:22:57;;;;;;;;;;;;;;;;;;2208713;59;1281;-70
2022/02/14 15:25:30;;;;;;;;;;;;;;;;;;2209232;59;1582;-70
2022/02/14 15:28:06;;;;;;;;;;;;;;;;;;2202551;59;2232;-70
2022/02/14 15:30:39;;;;;;;;;;;;;;;;;;2208380;59;2543;-70
2022/02/14 15:33:12;;;;;;;;;;;;;;;;;;2207115;59;1910;-70
2022/02/14 15:35:48;;;;;;;;;;;;;;;;;;2208737;67;1978;-71
2022/02/14 15:38:22;;;;;;;;;;;;;;;;;;2209089;60;1813;-70
2022/02/14 15:40:55;;;;;;;;;;;;;;;;;;2209191;67;1039;-70
2022/02/14 15:43:28;;;;;;;;;;;;;;;;;;2209051;59;1915;-70
2022/02/14 15:46:01;;;;;;;;;;;;;;;;;;2206572;59;2469;-70
2022/02/14 15:48:37;;;;;;;;;;;;;;;;;;2208373;59;2212;-70
2022/02/14 15:51:15;;;;;;;;;;;;;;;;;;2208408;59;1695;-70
2022/02/14 15:53:48;;;;;;;;;;;;;;;;;;2206506;59;2085;-71
2022/02/14 15:56:22;;;;;;;;;;;;;;;;;;2208324;67;2109;-70
2022/02/14 15:58:55;;;;;;;;;;;;;;;;;;2207193;59;2539;-71
2022/02/14 16:01:28;;;;;;;;;;;;;;;;;;2208537;67;1296;-70
2022/02/14 16:04:01;;;;;;;;;;;;;;;;;;2207736;59;1878;-71
2022/02/14 16:06:39;;;;;;;;;;;;;;;;;;2208723;67;1956;-70
2022/02/14 16:09:12;;;;;;;;;;;;;;;;;;2208764;59;2086;-70
2022/02/14 16:11:47;;;;;;;;;;;;;;;;;;2208369;67;1149;-71
2022/02/14 16:14:21;;;;;;;;;;;;;;;;;;2203635;59;1937;-71
2022/02/14 16:16:54;;;;;;;;;;;;;;;;;;2208131;59;1927;-71
2022/02/14 16:19:28;;;;;;;;;;;;;;;;;;2206790;67;1421;-71
2022/02/14 16:22:04;;;;;;;;;;;;;;;;;;2208240;59;1689;-70
2022/02/14 16:24:38;;;;;;;;;;;;;;;;;;2210236;53;3550;-73
2022/02/14 16:27:11;;;;;;;;;;;;;;;;;;2210103;59;1934;-73
2022/02/14 16:29:45;;;;;;;;;;;;;;;;;;2210707;58;3001;-73
2022/02/14 16:32:18;;;;;;;;;;;;;;;;;;2213744;58;2477;-74
2022/02/14 16:34:51;;;;;;;;;;;;;;;;;;2214826;58;1977;-74
2022/02/14 16:37:28;;;;;;;;;;;;;;;;;;2216215;66;1980;-74
2022/02/14 16:40:01;;;;;;;;;;;;;;;;;;2215219;59;1609;-74
2022/02/14 16:42:34;;;;;;;;;;;;;;;;;;2214022;58;1750;-74
2022/02/14 16:45:08;;;;;;;;;;;;;;;;;;2214290;59;1624;-74
2022/02/14 16:47:41;;;;;;;;;;;;;;;;;;2213859;59;2424;-78
2022/02/14 16:50:14;;;;;;;;;;;;;;;;;;2213436;59;2301;-74
2022/02/14 16:52:52;;;;;;;;;;;;;;;;;;2214573;59;1673;-74
2022/02/14 16:55:25;;;;;;;;;;;;;;;;;;2213079;66;1222;-74
2022/02/14 16:57:58;;;;;;;;;;;;;;;;;;2214395;66;1995;-73
2022/02/14 17:00:32;;;;;;;;;;;;;;;;;;2214556;59;1270;-74
2022/02/14 17:03:05;;;;;;;;;;;;;;;;;;2211387;58;1853;-73
2022/02/14 17:05:38;;;;;;;;;;;;;;;;;;2212344;59;1680;-74
2022/02/14 17:08:14;;;;;;;;;;;;;;;;;;2212752;59;1368;-74
2022/02/14 17:10:47;;;;;;;;;;;;;;;;;;2213705;66;1072;-73
2022/02/14 17:13:20;;;;;;;;;;;;;;;;;;2214734;59;1400;-74
2022/02/14 17:15:53;;;;;;;;;;;;;;;;;;2214745;66;1198;-74
2022/02/14 17:18:27;;;;;;;;;;;;;;;;;;2214331;58;1996;-74
2022/02/14 17:21:01;;;;;;;;;;;;;;;;;;2213780;59;1524;-73
2022/02/14 17:23:37;;;;;;;;;;;;;;;;;;2214720;59;1638;-73
2022/02/14 17:26:10;;;;;;;;;;;;;;;;;;2213645;59;1877;-73
2022/02/14 17:28:44;;;;;;;;;;;;;;;;;;2215181;58;1818;-73
2022/02/14 17:31:17;;;;;;;;;;;;;;;;;;2215576;59;3388;-74
2022/02/14 17:33:53;;;;;;;;;;;;;;;;;;2217102;66;1054;-74
2022/02/14 17:36:26;;;;;;;;;;;;;;;;;;2214704;66;1923;-73
2022/02/14 17:39:02;;;;;;;;;;;;;;;;;;2215968;66;1197;-74
2022/02/14 17:41:36;;;;;;;;;;;;;;;;;;2216489;66;1098;-74
2022/02/14 17:44:10;;;;;;;;;;;;;;;;;;2215392;59;1971;-74
2022/02/14 17:46:43;;;;;;;;;;;;;;;;;;2214381;59;1504;-74
2022/02/14 17:49:16;;;;;;;;;;;;;;;;;;2214438;59;2564;-74
2022/02/14 17:51:50;;;;;;;;;;;;;;;;;;2214399;59;2240;-74
2022/02/14 17:54:25;;;;;;;;;;;;;;;;;;2214641;66;1196;-74
2022/02/14 17:56:59;;;;;;;;;;;;;;;;;;2213713;66;1937;-74
2022/02/14 17:59:32;;;;;;;;;;;;;;;;;;2213370;59;1147;-74